createdAt,value
2022-12-08T00:03:13.141Z,1.47
2022-12-08T00:08:37.966Z,1.83
2022-12-08T00:13:51.787Z,1.60
2022-12-08T00:19:09.735Z,1.80
2022-12-08T00:24:23.702Z,1.30
2022-12-08T00:29:38.807Z,1.80
2022-12-08T00:34:56.763Z,1.73
2022-12-08T00:40:10.450Z,1.97
2022-12-08T00:45:26.144Z,1.80
2022-12-08T00:50:42.219Z,2.47
2022-12-08T00:55:54.617Z,2.47
2022-12-08T01:01:07.389Z,2.13
2022-12-08T01:06:21.386Z,1.50
2022-12-08T01:11:34.537Z,1.60
2022-12-08T01:16:47.463Z,2.80
2022-12-08T01:22:01.315Z,3.73
2022-12-08T01:27:13.934Z,2.33
2022-12-08T01:32:25.712Z,3.57
2022-12-08T01:37:41.746Z,1.83
2022-12-08T01:42:52.754Z,2.50
2022-12-08T01:48:05.055Z,2.15
2022-12-08T01:53:22.343Z,3.97
2022-12-08T01:58:36.690Z,3.10
2022-12-08T02:03:50.274Z,3.87
2022-12-08T02:09:05.929Z,4.47
2022-12-08T02:14:17.032Z,3.17
2022-12-08T02:19:50.817Z,3.28
2022-12-08T02:25:13.947Z,4.10
2022-12-08T02:30:29.180Z,3.83
2022-12-08T02:35:49.410Z,4.40
2022-12-08T02:41:05.206Z,4.23
2022-12-08T02:46:19.253Z,2.67
2022-12-08T02:51:35.370Z,2.83
2022-12-08T02:57:03.020Z,3.37
2022-12-08T03:02:28.136Z,3.20
2022-12-08T03:07:45.208Z,3.37
2022-12-08T03:13:00.171Z,3.10
2022-12-08T03:18:12.524Z,3.20
2022-12-08T03:23:28.710Z,3.37
2022-12-08T03:28:41.463Z,3.20
2022-12-08T03:33:55.115Z,3.00
2022-12-08T03:39:11.065Z,3.20
2022-12-08T03:44:24.032Z,3.00
2022-12-08T03:49:36.285Z,3.43
2022-12-08T04:00:02.063Z,3.80
2022-12-08T04:05:14.133Z,3.57
2022-12-08T04:10:29.469Z,2.75
2022-12-08T04:15:41.299Z,2.63
2022-12-08T04:20:52.656Z,2.00
2022-12-08T04:26:07.631Z,1.10
2022-12-08T04:31:21.495Z,1.30
2022-12-08T04:36:34.255Z,1.30
2022-12-08T04:41:50.362Z,0.80
2022-12-08T04:47:03.898Z,1.00
2022-12-08T04:52:16.910Z,1.17
2022-12-08T04:57:31.922Z,1.63
2022-12-08T05:02:45.807Z,2.57
2022-12-08T05:07:58.699Z,1.53
2022-12-08T05:13:14.686Z,1.13
2022-12-08T05:18:25.056Z,1.07
2022-12-08T05:23:37.193Z,1.30
2022-12-08T05:28:53.173Z,1.10
2022-12-08T05:34:09.441Z,1.30
2022-12-08T05:39:24.163Z,1.37
2022-12-08T05:44:41.468Z,1.43
2022-12-08T05:49:54.280Z,1.20
2022-12-08T05:55:07.746Z,0.87
2022-12-08T06:00:25.345Z,0.90
2022-12-08T06:05:40.923Z,1.20
2022-12-08T06:10:54.878Z,1.50
2022-12-08T06:16:16.374Z,1.30
2022-12-08T06:21:30.320Z,1.65
2022-12-08T06:26:44.244Z,1.90
2022-12-08T06:32:03.737Z,3.10
2022-12-08T06:37:16.944Z,2.83
2022-12-08T06:42:52.156Z,1.33
2022-12-08T06:48:09.683Z,1.07
2022-12-08T06:53:22.409Z,1.37
2022-12-08T06:58:36.430Z,1.03
2022-12-08T07:03:52.256Z,1.60
2022-12-08T07:09:06.603Z,1.73
2022-12-08T07:14:20.848Z,1.60
2022-12-08T07:19:37.043Z,1.97
2022-12-08T07:24:51.714Z,1.50
2022-12-08T07:30:06.054Z,1.50
2022-12-08T07:35:23.947Z,1.70
2022-12-08T07:40:37.539Z,1.20
2022-12-08T07:45:53.039Z,1.20
2022-12-08T07:51:13.607Z,1.30
2022-12-08T07:56:27.436Z,1.50
2022-12-08T08:01:45.185Z,1.37
2022-12-08T08:07:02.349Z,1.30
2022-12-08T08:12:31.289Z,1.53
2022-12-08T08:17:45.859Z,1.43
2022-12-08T08:23:01.890Z,1.23
2022-12-08T08:28:15.337Z,1.70
2022-12-08T08:33:27.940Z,1.23
2022-12-08T08:38:46.741Z,1.70
2022-12-08T08:43:59.626Z,1.60
2022-12-08T08:49:12.573Z,1.30
2022-12-08T08:54:29.792Z,2.10
2022-12-08T08:59:43.017Z,2.10
2022-12-08T09:04:57.347Z,1.53
2022-12-08T09:10:14.961Z,1.77
2022-12-08T09:15:29.073Z,2.30
2022-12-08T09:20:41.919Z,2.30
2022-12-08T09:25:59.721Z,2.20
2022-12-08T09:31:14.150Z,2.57
2022-12-08T09:36:28.975Z,2.27
2022-12-08T09:41:52.730Z,2.37
2022-12-08T09:47:08.368Z,2.67
2022-12-08T09:52:29.444Z,2.90
2022-12-08T09:57:51.634Z,2.83
2022-12-08T10:03:11.219Z,3.37
2022-12-08T10:08:32.990Z,4.00
2022-12-08T10:13:53.863Z,3.73
2022-12-08T10:19:06.471Z,8.90
2022-12-08T10:24:23.136Z,8.50
2022-12-08T10:29:33.191Z,7.13
2022-12-08T10:34:40.713Z,6.67
2022-12-08T10:39:48.951Z,6.43
2022-12-08T10:45:05.449Z,6.87
2022-12-08T10:50:24.243Z,6.50
2022-12-08T10:55:33.833Z,5.60
2022-12-08T11:00:45.350Z,5.07
2022-12-08T13:59:37.105Z,3.10
2022-12-08T14:05:23.493Z,3.40
2022-12-08T14:10:25.345Z,3.63
2022-12-08T14:15:37.780Z,4.03
2022-12-08T14:21:19.583Z,5.93
2022-12-08T14:26:19.337Z,3.53
2022-12-08T14:31:28.936Z,6.43
2022-12-08T14:36:37.453Z,5.63
2022-12-08T14:42:04.567Z,5.60
2022-12-08T14:47:14.390Z,3.10
2022-12-08T14:52:22.672Z,4.90
2022-12-08T14:57:38.462Z,4.53
2022-12-08T15:02:51.226Z,2.70
2022-12-08T15:08:01.099Z,2.70
2022-12-08T15:13:26.868Z,2.80
2022-12-08T15:18:39.974Z,2.75
2022-12-08T15:23:49.429Z,2.90
2022-12-08T15:29:00.719Z,2.80
2022-12-08T15:34:08.969Z,3.78
2022-12-08T15:39:36.216Z,3.50
2022-12-08T15:44:47.238Z,3.15
2022-12-08T15:49:56.198Z,3.63
2022-12-08T15:55:04.950Z,2.97
2022-12-08T16:00:52.907Z,3.37
2022-12-08T16:06:44.570Z,3.77
2022-12-08T16:12:05.454Z,3.20
2022-12-08T16:17:14.633Z,2.75
2022-12-08T16:28:03.042Z,2.05
2022-12-08T16:33:20.179Z,2.63
2022-12-08T16:38:28.855Z,3.90
2022-12-08T16:43:38.801Z,5.13
2022-12-08T16:48:52.621Z,5.32
2022-12-08T16:54:01.005Z,3.60
2022-12-08T16:59:09.693Z,6.57
2022-12-08T17:04:31.327Z,2.90
2022-12-08T17:14:47.468Z,4.03
2022-12-08T17:19:59.173Z,2.50
2022-12-08T17:25:07.634Z,3.55
2022-12-08T17:30:18.809Z,2.60
2022-12-08T17:35:29.687Z,3.60
2022-12-08T17:40:37.823Z,2.60
2022-12-08T17:45:46.721Z,2.85
2022-12-08T17:50:59.123Z,2.92
2022-12-08T17:56:07.649Z,3.10
2022-12-08T18:01:24.315Z,2.78
2022-12-08T18:06:46.782Z,2.30
2022-12-08T18:12:02.629Z,2.50
2022-12-08T18:17:20.361Z,2.53
2022-12-08T18:22:40.220Z,2.15
2022-12-08T18:27:55.774Z,2.25
2022-12-08T18:33:12.545Z,2.15
2022-12-08T18:38:33.062Z,2.53
2022-12-08T18:43:45.118Z,2.60
2022-12-08T18:48:58.227Z,2.30
2022-12-08T18:54:15.424Z,2.67
2022-12-08T18:59:28.480Z,2.78
2022-12-08T19:04:45.617Z,2.63
2022-12-08T19:10:02.199Z,2.28
2022-12-08T19:15:15.473Z,2.60
2022-12-08T19:20:26.692Z,2.40
2022-12-08T19:25:42.230Z,2.33
2022-12-08T19:30:53.711Z,2.45
2022-12-08T19:36:05.148Z,2.22
2022-12-08T19:41:30.840Z,2.70
2022-12-08T19:46:46.319Z,2.42
2022-12-08T19:52:00.976Z,2.63
2022-12-08T19:57:19.470Z,2.72
2022-12-08T20:02:33.998Z,2.35
2022-12-08T20:07:50.840Z,2.72
2022-12-08T20:13:19.731Z,2.42
2022-12-08T20:18:35.785Z,2.38
2022-12-08T20:23:52.272Z,2.35
2022-12-08T20:29:11.168Z,2.15
2022-12-08T20:34:27.664Z,2.58
2022-12-08T20:39:42.094Z,2.15
2022-12-08T20:45:00.443Z,2.17
2022-12-08T20:50:17.528Z,2.30
2022-12-08T20:55:31.230Z,2.47
2022-12-08T21:00:49.217Z,2.42
2022-12-08T21:06:03.612Z,2.50
2022-12-08T21:11:19.775Z,2.55
2022-12-08T21:16:37.571Z,2.30
2022-12-08T21:21:53.899Z,2.20
2022-12-08T21:27:08.126Z,2.08
2022-12-08T21:32:30.354Z,2.70
2022-12-08T21:37:45.897Z,2.28
2022-12-08T21:43:00.309Z,1.88
2022-12-08T21:48:17.134Z,2.38
2022-12-08T21:53:32.705Z,2.50
2022-12-08T21:58:47.087Z,2.65
2022-12-08T22:04:05.174Z,2.80
2022-12-08T22:09:19.986Z,2.35
2022-12-08T22:14:34.923Z,2.45
2022-12-08T22:19:53.156Z,2.05
2022-12-08T22:25:08.189Z,2.20
2022-12-08T22:30:22.276Z,2.03
2022-12-08T22:35:40.031Z,2.15
2022-12-08T22:40:54.831Z,2.30
2022-12-08T22:46:11.906Z,2.25
2022-12-08T22:51:28.898Z,2.28
2022-12-08T22:56:43.114Z,2.17
2022-12-08T23:01:56.144Z,2.40
2022-12-08T23:07:13.564Z,2.03
2022-12-08T23:12:28.997Z,2.28
2022-12-08T23:17:42.964Z,2.70
2022-12-08T23:23:00.272Z,2.40
2022-12-08T23:28:13.466Z,2.50
2022-12-08T23:33:27.187Z,2.05
2022-12-08T23:38:43.881Z,2.67
2022-12-08T23:43:58.340Z,2.53
2022-12-08T23:49:10.723Z,2.75
2022-12-08T23:59:39.093Z,2.53
